This is the latest recevied weather packets stored in our database for station/object OK3MS-5. If no packets are shown the sender has not sent any weather packets the latest 10 day(s).
| Time | Temp. | Humidity | Pressure | Rain* | Wind** | Luminosity | Snow |
|---|---|---|---|---|---|---|---|
| 1788011704 | 25° C | 46% | 1013.5 hPa | 0 mm | - | 514 W/m² | - |
| 1788011402 | 25° C | 48% | 1013.6 hPa | 0 mm | - | 537 W/m² | - |
| 1788011102 | 24.44° C | 47% | 1013.8 hPa | 0 mm | - | 538 W/m² | - |
| 1788010804 | 23.89° C | 48% | 1013.8 hPa | 0 mm | - | 566 W/m² | - |
| 1788010504 | 23.89° C | 48% | 1014.1 hPa | 0 mm | - | 549 W/m² | - |
| 1788010206 | 24.44° C | 47% | 1013.9 hPa | 0 mm | - | 567 W/m² | - |
| 1788009905 | 23.89° C | 50% | 1014 hPa | 0 mm | - | 577 W/m² | - |
| 1788009603 | 23.89° C | 48% | 1014 hPa | 0 mm | - | 579 W/m² | - |
| 1788009304 | 24.44° C | 47% | 1014 hPa | 0 mm | - | 602 W/m² | - |
| 1788009004 | 23.89° C | 48% | 1014 hPa | 0 mm | - | 619 W/m² | - |
| 1788008708 | 24.44° C | 48% | 1014.1 hPa | 0 mm | - | 636 W/m² | - |
| 1788008404 | 23.89° C | 50% | 1014 hPa | 0 mm | - | 658 W/m² | - |
| 1788008105 | 23.89° C | 48% | 1014.1 hPa | 0 mm | - | 680 W/m² | - |
| 1788007803 | 23.89° C | 48% | 1014 hPa | 0 mm | - | 727 W/m² | - |
| 1788007504 | 23.89° C | 50% | 1014.1 hPa | 0 mm | - | 720 W/m² | - |
| 1788007206 | 23.33° C | 50% | 1014.1 hPa | 0 mm | - | 734 W/m² | - |
| 1788006904 | 22.22° C | 54% | 1014.3 hPa | 0 mm | - | 726 W/m² | - |
| 1788006604 | 22.22° C | 56% | 1014.5 hPa | 0 mm | - | 719 W/m² | - |
| 1788006308 | 22.22° C | 54% | 1014.4 hPa | 0 mm | - | 120 W/m² | - |
| 1788006011 | 22.22° C | 54% | 1014.4 hPa | 0 mm | - | 510 W/m² | - |
| 1788005703 | 22.22° C | 55% | 1014.5 hPa | 0 mm | - | 793 W/m² | - |
| 1788005402 | 22.78° C | 51% | 1014.5 hPa | 0 mm | - | 199 W/m² | - |
| 1788005104 | 23.89° C | 50% | 1014.4 hPa | 0 mm | - | 225 W/m² | - |
| 1788004804 | 23.33° C | 53% | 1014.4 hPa | 0 mm | - | 770 W/m² | - |
| 1788004505 | 22.22° C | 56% | 1014.6 hPa | 0 mm | - | 702 W/m² | - |
* Rain latest hour (hover to see other rain measurements)
** Current wind speed in m/s (hover to see current wind gust speed)